sensor_id;sensor_type;location;lat;lon;timestamp;pressure;altitude;pressure_sealevel;temperature;humidity
11198;BME280;5655;48.744;9.162;2022-09-09T00:00:05;95863.34;;;17.66;100.00
11198;BME280;5655;48.744;9.162;2022-09-09T00:02:31;95867.44;;;17.54;100.00
11198;BME280;5655;48.744;9.162;2022-09-09T00:07:38;95862.94;;;17.48;100.00
11198;BME280;5655;48.744;9.162;2022-09-09T00:18:46;95851.50;;;17.60;100.00
11198;BME280;5655;48.744;9.162;2022-09-09T00:21:16;95844.91;;;17.41;100.00
11198;BME280;5655;48.744;9.162;2022-09-09T00:23:53;95845.25;;;17.63;100.00
11198;BME280;5655;48.744;9.162;2022-09-09T00:26:38;95846.09;;;17.60;100.00
11198;BME280;5655;48.744;9.162;2022-09-09T00:29:58;95844.94;;;17.57;100.00
11198;BME280;5655;48.744;9.162;2022-09-09T00:32:05;95842.81;;;17.85;100.00
11198;BME280;5655;48.744;9.162;2022-09-09T00:34:31;95856.19;;;17.76;100.00
11198;BME280;5655;48.744;9.162;2022-09-09T00:36:57;95852.88;;;17.68;100.00
11198;BME280;5655;48.744;9.162;2022-09-09T00:39:39;95846.22;;;17.89;100.00
11198;BME280;5655;48.744;9.162;2022-09-09T00:45:26;95845.44;;;17.88;100.00
11198;BME280;5655;48.744;9.162;2022-09-09T00:48:01;95852.97;;;17.97;100.00
11198;BME280;5655;48.744;9.162;2022-09-09T00:53:12;95853.38;;;17.95;100.00
11198;BME280;5655;48.744;9.162;2022-09-09T00:55:56;95855.69;;;17.97;100.00
11198;BME280;5655;48.744;9.162;2022-09-09T00:58:25;95861.47;;;17.99;100.00
11198;BME280;5655;48.744;9.162;2022-09-09T01:00:57;95861.94;;;18.26;100.00
11198;BME280;5655;48.744;9.162;2022-09-09T01:03:35;95860.69;;;18.14;100.00
11198;BME280;5655;48.744;9.162;2022-09-09T01:17:12;95845.88;;;18.03;100.00
11198;BME280;5655;48.744;9.162;2022-09-09T01:22:37;95860.88;;;18.07;100.00
11198;BME280;5655;48.744;9.162;2022-09-09T01:25:25;95864.00;;;18.06;100.00
11198;BME280;5655;48.744;9.162;2022-09-09T01:27:56;95867.53;;;18.03;100.00
11198;BME280;5655;48.744;9.162;2022-09-09T01:30:22;95868.19;;;17.91;100.00
11198;BME280;5655;48.744;9.162;2022-09-09T01:32:52;95869.34;;;17.74;100.00
11198;BME280;5655;48.744;9.162;2022-09-09T01:37:49;95873.09;;;17.80;100.00
11198;BME280;5655;48.744;9.162;2022-09-09T01:40:14;95854.63;;;17.58;100.00
11198;BME280;5655;48.744;9.162;2022-09-09T01:42:40;95856.69;;;17.87;100.00
11198;BME280;5655;48.744;9.162;2022-09-09T01:45:06;95855.69;;;17.97;100.00
11198;BME280;5655;48.744;9.162;2022-09-09T01:47:31;95859.38;;;17.71;100.00
11198;BME280;5655;48.744;9.162;2022-09-09T01:49:57;95854.50;;;17.82;100.00
11198;BME280;5655;48.744;9.162;2022-09-09T01:52:23;95852.78;;;17.72;100.00
11198;BME280;5655;48.744;9.162;2022-09-09T01:54:48;95853.31;;;17.83;100.00
11198;BME280;5655;48.744;9.162;2022-09-09T02:00:11;95844.84;;;18.13;100.00
11198;BME280;5655;48.744;9.162;2022-09-09T02:05:26;95848.75;;;17.96;100.00
11198;BME280;5655;48.744;9.162;2022-09-09T02:08:02;95861.59;;;17.76;100.00
11198;BME280;5655;48.744;9.162;2022-09-09T02:10:35;95865.16;;;17.89;100.00
11198;BME280;5655;48.744;9.162;2022-09-09T02:13:11;95861.09;;;17.97;100.00
11198;BME280;5655;48.744;9.162;2022-09-09T02:15:58;95866.00;;;17.86;100.00
11198;BME280;5655;48.744;9.162;2022-09-09T02:21:04;95856.34;;;17.68;100.00
11198;BME280;5655;48.744;9.162;2022-09-09T02:23:31;95852.75;;;17.55;100.00
11198;BME280;5655;48.744;9.162;2022-09-09T02:25:59;95845.78;;;17.54;100.00
11198;BME280;5655;48.744;9.162;2022-09-09T02:28:28;95852.31;;;17.57;100.00
11198;BME280;5655;48.744;9.162;2022-09-09T02:30:54;95856.63;;;17.54;100.00
11198;BME280;5655;48.744;9.162;2022-09-09T02:33:23;95866.00;;;17.50;100.00
11198;BME280;5655;48.744;9.162;2022-09-09T02:35:51;95858.59;;;17.34;100.00
11198;BME280;5655;48.744;9.162;2022-09-09T02:38:20;95861.06;;;17.45;100.00
11198;BME280;5655;48.744;9.162;2022-09-09T02:40:46;95852.47;;;17.30;100.00
11198;BME280;5655;48.744;9.162;2022-09-09T02:43:14;95856.44;;;17.45;100.00
11198;BME280;5655;48.744;9.162;2022-09-09T02:48:38;95840.47;;;17.51;100.00
11198;BME280;5655;48.744;9.162;2022-09-09T02:51:19;95840.56;;;17.47;100.00
11198;BME280;5655;48.744;9.162;2022-09-09T02:53:53;95840.97;;;17.26;100.00
11198;BME280;5655;48.744;9.162;2022-09-09T02:56:21;95846.84;;;17.41;100.00
11198;BME280;5655;48.744;9.162;2022-09-09T02:58:49;95849.16;;;17.42;100.00
11198;BME280;5655;48.744;9.162;2022-09-09T03:01:17;95843.97;;;17.32;100.00
11198;BME280;5655;48.744;9.162;2022-09-09T03:03:42;95838.09;;;17.53;100.00
11198;BME280;5655;48.744;9.162;2022-09-09T03:06:09;95838.22;;;17.65;100.00
11198;BME280;5655;48.744;9.162;2022-09-09T03:08:37;95831.63;;;17.66;100.00
11198;BME280;5655;48.744;9.162;2022-09-09T03:11:02;95844.41;;;17.66;100.00
11198;BME280;5655;48.744;9.162;2022-09-09T03:13:28;95843.72;;;17.62;100.00
11198;BME280;5655;48.744;9.162;2022-09-09T03:15:53;95844.84;;;17.64;100.00
11198;BME280;5655;48.744;9.162;2022-09-09T03:18:18;95849.41;;;17.67;100.00
11198;BME280;5655;48.744;9.162;2022-09-09T03:20:46;95841.03;;;17.42;100.00
11198;BME280;5655;48.744;9.162;2022-09-09T03:23:14;95849.56;;;17.41;100.00
11198;BME280;5655;48.744;9.162;2022-09-09T03:25:39;95841.13;;;17.19;100.00
11198;BME280;5655;48.744;9.162;2022-09-09T03:28:11;95838.09;;;17.17;100.00
11198;BME280;5655;48.744;9.162;2022-09-09T03:30:36;95845.41;;;17.36;100.00
11198;BME280;5655;48.744;9.162;2022-09-09T03:33:02;95843.56;;;17.33;100.00
11198;BME280;5655;48.744;9.162;2022-09-09T03:35:29;95841.28;;;17.12;100.00
11198;BME280;5655;48.744;9.162;2022-09-09T03:37:54;95845.50;;;17.13;100.00
11198;BME280;5655;48.744;9.162;2022-09-09T03:40:20;95839.97;;;17.00;100.00
11198;BME280;5655;48.744;9.162;2022-09-09T03:42:46;95838.16;;;16.94;100.00
11198;BME280;5655;48.744;9.162;2022-09-09T03:45:11;95850.22;;;17.09;100.00
11198;BME280;5655;48.744;9.162;2022-09-09T03:47:37;95836.69;;;17.09;100.00
11198;BME280;5655;48.744;9.162;2022-09-09T03:50:02;95848.91;;;17.17;100.00
11198;BME280;5655;48.744;9.162;2022-09-09T03:52:29;95841.13;;;17.19;100.00
11198;BME280;5655;48.744;9.162;2022-09-09T03:54:55;95843.50;;;17.17;100.00
11198;BME280;5655;48.744;9.162;2022-09-09T03:57:22;95839.84;;;17.07;100.00
11198;BME280;5655;48.744;9.162;2022-09-09T03:59:47;95846.81;;;17.05;100.00
11198;BME280;5655;48.744;9.162;2022-09-09T04:02:12;95830.13;;;16.90;100.00
11198;BME280;5655;48.744;9.162;2022-09-09T04:04:38;95836.78;;;16.86;100.00
11198;BME280;5655;48.744;9.162;2022-09-09T04:07:03;95846.44;;;16.87;100.00
11198;BME280;5655;48.744;9.162;2022-09-09T04:09:31;95834.72;;;16.73;100.00
11198;BME280;5655;48.744;9.162;2022-09-09T04:11:56;95849.31;;;16.76;100.00
11198;BME280;5655;48.744;9.162;2022-09-09T04:14:21;95840.59;;;16.68;100.00
11198;BME280;5655;48.744;9.162;2022-09-09T04:16:47;95826.72;;;16.66;100.00
11198;BME280;5655;48.744;9.162;2022-09-09T04:19:13;95842.59;;;16.84;100.00
11198;BME280;5655;48.744;9.162;2022-09-09T04:21:41;95842.13;;;16.69;100.00
11198;BME280;5655;48.744;9.162;2022-09-09T04:24:10;95846.81;;;16.65;100.00
11198;BME280;5655;48.744;9.162;2022-09-09T04:26:36;95852.09;;;16.72;100.00
11198;BME280;5655;48.744;9.162;2022-09-09T04:29:02;95844.31;;;16.74;100.00
11198;BME280;5655;48.744;9.162;2022-09-09T04:31:28;95850.34;;;16.62;100.00
11198;BME280;5655;48.744;9.162;2022-09-09T04:33:54;95838.72;;;16.42;100.00
11198;BME280;5655;48.744;9.162;2022-09-09T04:36:19;95848.16;;;16.77;100.00
11198;BME280;5655;48.744;9.162;2022-09-09T04:38:45;95841.34;;;16.69;100.00
11198;BME280;5655;48.744;9.162;2022-09-09T04:41:11;95849.41;;;16.49;100.00
11198;BME280;5655;48.744;9.162;2022-09-09T04:43:40;95855.97;;;16.71;100.00
11198;BME280;5655;48.744;9.162;2022-09-09T04:46:06;95830.84;;;16.51;100.00
11198;BME280;5655;48.744;9.162;2022-09-09T04:48:31;95848.56;;;16.75;100.00
11198;BME280;5655;48.744;9.162;2022-09-09T04:50:58;95852.34;;;16.58;100.00
11198;BME280;5655;48.744;9.162;2022-09-09T04:53:24;95853.16;;;16.55;100.00
11198;BME280;5655;48.744;9.162;2022-09-09T04:55:50;95850.59;;;16.25;100.00
11198;BME280;5655;48.744;9.162;2022-09-09T04:58:16;95847.59;;;16.43;100.00
11198;BME280;5655;48.744;9.162;2022-09-09T05:00:42;95855.09;;;16.55;100.00
11198;BME280;5655;48.744;9.162;2022-09-09T05:03:07;95855.88;;;16.32;100.00
11198;BME280;5655;48.744;9.162;2022-09-09T05:05:34;95859.94;;;16.20;100.00
11198;BME280;5655;48.744;9.162;2022-09-09T05:08:07;95861.38;;;16.48;100.00
11198;BME280;5655;48.744;9.162;2022-09-09T05:10:36;95871.91;;;16.43;100.00
11198;BME280;5655;48.744;9.162;2022-09-09T05:13:01;95866.66;;;16.32;100.00
11198;BME280;5655;48.744;9.162;2022-09-09T05:15:27;95867.84;;;16.08;100.00
11198;BME280;5655;48.744;9.162;2022-09-09T05:17:52;95865.81;;;16.39;100.00
11198;BME280;5655;48.744;9.162;2022-09-09T05:20:18;95864.56;;;16.43;100.00
11198;BME280;5655;48.744;9.162;2022-09-09T05:22:43;95865.50;;;16.56;100.00
11198;BME280;5655;48.744;9.162;2022-09-09T05:25:09;95859.97;;;16.63;100.00
11198;BME280;5655;48.744;9.162;2022-09-09T05:27:34;95871.00;;;16.49;100.00
11198;BME280;5655;48.744;9.162;2022-09-09T05:30:00;95864.78;;;16.52;100.00
11198;BME280;5655;48.744;9.162;2022-09-09T05:32:25;95861.16;;;16.62;100.00
11198;BME280;5655;48.744;9.162;2022-09-09T05:34:51;95864.69;;;16.59;100.00
11198;BME280;5655;48.744;9.162;2022-09-09T05:37:17;95858.13;;;16.80;100.00
11198;BME280;5655;48.744;9.162;2022-09-09T05:39:43;95875.81;;;16.85;100.00
11198;BME280;5655;48.744;9.162;2022-09-09T05:42:08;95878.81;;;16.90;100.00
11198;BME280;5655;48.744;9.162;2022-09-09T05:44:34;95877.88;;;16.97;100.00
11198;BME280;5655;48.744;9.162;2022-09-09T05:46:59;95873.25;;;17.17;100.00
11198;BME280;5655;48.744;9.162;2022-09-09T05:49:25;95884.13;;;17.33;100.00
11198;BME280;5655;48.744;9.162;2022-09-09T05:51:50;95885.44;;;16.86;100.00
11198;BME280;5655;48.744;9.162;2022-09-09T05:54:16;95877.91;;;17.16;100.00
11198;BME280;5655;48.744;9.162;2022-09-09T05:56:41;95891.69;;;17.22;100.00
11198;BME280;5655;48.744;9.162;2022-09-09T05:59:07;95893.69;;;17.18;100.00
11198;BME280;5655;48.744;9.162;2022-09-09T06:01:35;95892.72;;;17.28;100.00
11198;BME280;5655;48.744;9.162;2022-09-09T06:04:01;95888.06;;;17.09;100.00
11198;BME280;5655;48.744;9.162;2022-09-09T06:06:33;95890.59;;;17.19;100.00
11198;BME280;5655;48.744;9.162;2022-09-09T06:09:03;95885.09;;;17.23;100.00
11198;BME280;5655;48.744;9.162;2022-09-09T06:11:32;95886.91;;;17.30;100.00
11198;BME280;5655;48.744;9.162;2022-09-09T06:13:58;95885.88;;;17.23;100.00
11198;BME280;5655;48.744;9.162;2022-09-09T06:16:25;95886.56;;;17.28;100.00
11198;BME280;5655;48.744;9.162;2022-09-09T06:18:52;95883.72;;;17.15;100.00
11198;BME280;5655;48.744;9.162;2022-09-09T06:21:24;95879.22;;;17.28;100.00
11198;BME280;5655;48.744;9.162;2022-09-09T06:23:50;95877.06;;;17.00;100.00
11198;BME280;5655;48.744;9.162;2022-09-09T06:26:37;95882.53;;;17.16;100.00
11198;BME280;5655;48.744;9.162;2022-09-09T06:29:04;95885.66;;;17.34;100.00
11198;BME280;5655;48.744;9.162;2022-09-09T06:31:31;95891.44;;;17.52;100.00
11198;BME280;5655;48.744;9.162;2022-09-09T06:33:59;95880.09;;;17.41;100.00
11198;BME280;5655;48.744;9.162;2022-09-09T06:36:33;95898.97;;;17.64;100.00
11198;BME280;5655;48.744;9.162;2022-09-09T06:38:59;95900.75;;;17.71;100.00
11198;BME280;5655;48.744;9.162;2022-09-09T06:41:28;95896.13;;;17.88;100.00
11198;BME280;5655;48.744;9.162;2022-09-09T06:43:54;95892.91;;;17.93;100.00
11198;BME280;5655;48.744;9.162;2022-09-09T06:46:25;95899.09;;;17.77;100.00
11198;BME280;5655;48.744;9.162;2022-09-09T06:48:53;95895.44;;;18.00;100.00
11198;BME280;5655;48.744;9.162;2022-09-09T06:51:22;95896.31;;;18.13;100.00
11198;BME280;5655;48.744;9.162;2022-09-09T06:53:50;95893.28;;;18.11;100.00
11198;BME280;5655;48.744;9.162;2022-09-09T06:58:42;95904.78;;;18.47;100.00
11198;BME280;5655;48.744;9.162;2022-09-09T07:01:10;95896.66;;;18.31;100.00
11198;BME280;5655;48.744;9.162;2022-09-09T07:03:37;95899.34;;;18.47;100.00
11198;BME280;5655;48.744;9.162;2022-09-09T07:06:04;95909.00;;;18.65;100.00
11198;BME280;5655;48.744;9.162;2022-09-09T07:08:29;95912.06;;;18.67;100.00
11198;BME280;5655;48.744;9.162;2022-09-09T07:11:04;95904.41;;;18.94;100.00
11198;BME280;5655;48.744;9.162;2022-09-09T07:13:33;95912.81;;;18.83;100.00
11198;BME280;5655;48.744;9.162;2022-09-09T07:16:07;95917.66;;;18.76;100.00
11198;BME280;5655;48.744;9.162;2022-09-09T07:18:33;95915.16;;;18.81;100.00
11198;BME280;5655;48.744;9.162;2022-09-09T07:20:59;95912.19;;;18.92;100.00
11198;BME280;5655;48.744;9.162;2022-09-09T07:23:25;95917.06;;;19.13;100.00
11198;BME280;5655;48.744;9.162;2022-09-09T07:25:51;95915.72;;;19.05;100.00
11198;BME280;5655;48.744;9.162;2022-09-09T07:28:19;95905.56;;;19.22;100.00
11198;BME280;5655;48.744;9.162;2022-09-09T07:30:53;95906.47;;;19.31;100.00
11198;BME280;5655;48.744;9.162;2022-09-09T07:33:19;95914.47;;;19.22;100.00
11198;BME280;5655;48.744;9.162;2022-09-09T07:35:45;95921.91;;;19.34;100.00
11198;BME280;5655;48.744;9.162;2022-09-09T07:38:11;95919.69;;;19.29;100.00
11198;BME280;5655;48.744;9.162;2022-09-09T07:40:36;95907.03;;;19.39;100.00
11198;BME280;5655;48.744;9.162;2022-09-09T07:43:02;95908.22;;;19.79;100.00
11198;BME280;5655;48.744;9.162;2022-09-09T07:45:27;95908.88;;;19.42;100.00
11198;BME280;5655;48.744;9.162;2022-09-09T07:47:57;95912.34;;;19.71;100.00
11198;BME280;5655;48.744;9.162;2022-09-09T07:50:23;95925.28;;;19.67;100.00
11198;BME280;5655;48.744;9.162;2022-09-09T07:52:50;95920.69;;;19.77;100.00
11198;BME280;5655;48.744;9.162;2022-09-09T07:55:15;95920.81;;;19.99;100.00
11198;BME280;5655;48.744;9.162;2022-09-09T07:57:40;95923.34;;;20.18;100.00
11198;BME280;5655;48.744;9.162;2022-09-09T08:00:06;95928.31;;;20.07;100.00
11198;BME280;5655;48.744;9.162;2022-09-09T08:02:32;95934.22;;;20.18;100.00
11198;BME280;5655;48.744;9.162;2022-09-09T08:04:57;95934.09;;;20.34;100.00
11198;BME280;5655;48.744;9.162;2022-09-09T08:07:22;95931.81;;;20.08;100.00
11198;BME280;5655;48.744;9.162;2022-09-09T08:09:48;95942.13;;;20.25;100.00
11198;BME280;5655;48.744;9.162;2022-09-09T08:12:14;95943.22;;;20.53;100.00
11198;BME280;5655;48.744;9.162;2022-09-09T08:14:39;95939.84;;;20.11;100.00
11198;BME280;5655;48.744;9.162;2022-09-09T08:17:05;95932.34;;;20.53;100.00
11198;BME280;5655;48.744;9.162;2022-09-09T08:19:30;95933.53;;;20.99;100.00
11198;BME280;5655;48.744;9.162;2022-09-09T08:21:59;95942.16;;;20.85;100.00
11198;BME280;5655;48.744;9.162;2022-09-09T08:24:27;95941.44;;;20.72;100.00
11198;BME280;5655;48.744;9.162;2022-09-09T08:26:52;95940.56;;;20.75;100.00
11198;BME280;5655;48.744;9.162;2022-09-09T08:29:18;95943.66;;;20.99;100.00
11198;BME280;5655;48.744;9.162;2022-09-09T08:31:45;95954.66;;;20.95;100.00
11198;BME280;5655;48.744;9.162;2022-09-09T08:34:11;95955.13;;;20.81;100.00
11198;BME280;5655;48.744;9.162;2022-09-09T08:36:42;95941.69;;;20.99;100.00
11198;BME280;5655;48.744;9.162;2022-09-09T08:39:10;95950.69;;;21.21;100.00
11198;BME280;5655;48.744;9.162;2022-09-09T08:58:08;95951.19;;;21.72;100.00
11198;BME280;5655;48.744;9.162;2022-09-09T09:06:59;95949.50;;;22.28;100.00
11198;BME280;5655;48.744;9.162;2022-09-09T09:12:36;95948.06;;;21.83;100.00
11198;BME280;5655;48.744;9.162;2022-09-09T09:15:14;95948.31;;;21.76;100.00
11198;BME280;5655;48.744;9.162;2022-09-09T09:17:42;95953.41;;;21.43;100.00
11198;BME280;5655;48.744;9.162;2022-09-09T09:20:13;95965.75;;;21.13;100.00
11198;BME280;5655;48.744;9.162;2022-09-09T09:25:19;95961.81;;;20.42;100.00
11198;BME280;5655;48.744;9.162;2022-09-09T09:28:15;95970.72;;;19.92;100.00
11198;BME280;5655;48.744;9.162;2022-09-09T09:30:49;95948.03;;;18.51;100.00
11198;BME280;5655;48.744;9.162;2022-09-09T09:33:22;95924.03;;;18.21;100.00
11198;BME280;5655;48.744;9.162;2022-09-09T09:35:50;95913.03;;;17.56;100.00
11198;BME280;5655;48.744;9.162;2022-09-09T09:38:24;95906.44;;;17.77;100.00
11198;BME280;5655;48.744;9.162;2022-09-09T09:40:58;95914.41;;;18.00;100.00
11198;BME280;5655;48.744;9.162;2022-09-09T09:43:30;95904.28;;;18.36;100.00
11198;BME280;5655;48.744;9.162;2022-09-09T09:45:56;95912.00;;;18.54;100.00
11198;BME280;5655;48.744;9.162;2022-09-09T09:48:23;95914.25;;;18.88;100.00
11198;BME280;5655;48.744;9.162;2022-09-09T09:50:56;95907.94;;;18.91;100.00
11198;BME280;5655;48.744;9.162;2022-09-09T09:53:30;95904.44;;;19.35;100.00
11198;BME280;5655;48.744;9.162;2022-09-09T09:56:05;95891.44;;;19.56;100.00
11198;BME280;5655;48.744;9.162;2022-09-09T09:58:49;95891.69;;;19.86;100.00
11198;BME280;5655;48.744;9.162;2022-09-09T10:01:28;95877.25;;;20.15;100.00
11198;BME280;5655;48.744;9.162;2022-09-09T10:03:59;95877.03;;;20.34;100.00
11198;BME280;5655;48.744;9.162;2022-09-09T10:06:33;95881.38;;;20.32;100.00
11198;BME280;5655;48.744;9.162;2022-09-09T10:08:59;95873.94;;;20.58;100.00
11198;BME280;5655;48.744;9.162;2022-09-09T10:11:43;95869.88;;;20.97;100.00
11198;BME280;5655;48.744;9.162;2022-09-09T10:14:41;95887.19;;;21.24;100.00
11198;BME280;5655;48.744;9.162;2022-09-09T10:22:32;95880.53;;;22.09;100.00
11198;BME280;5655;48.744;9.162;2022-09-09T10:25:12;95893.31;;;22.30;100.00
11198;BME280;5655;48.744;9.162;2022-09-09T10:30:25;95891.16;;;22.83;100.00
11198;BME280;5655;48.744;9.162;2022-09-09T10:33:08;95901.47;;;22.79;100.00
11198;BME280;5655;48.744;9.162;2022-09-09T10:38:41;95894.19;;;22.27;100.00
11198;BME280;5655;48.744;9.162;2022-09-09T10:44:12;95901.94;;;22.29;100.00
11198;BME280;5655;48.744;9.162;2022-09-09T10:52:01;95893.13;;;22.15;100.00
11198;BME280;5655;48.744;9.162;2022-09-09T10:57:31;95889.34;;;22.13;100.00
11198;BME280;5655;48.744;9.162;2022-09-09T11:00:06;95895.84;;;22.83;100.00
11198;BME280;5655;48.744;9.162;2022-09-09T11:02:34;95896.69;;;22.61;100.00
11198;BME280;5655;48.744;9.162;2022-09-09T11:08:14;95900.81;;;22.66;100.00
11198;BME280;5655;48.744;9.162;2022-09-09T11:10:46;95897.53;;;22.31;100.00
11198;BME280;5655;48.744;9.162;2022-09-09T11:13:23;95892.00;;;22.62;100.00
11198;BME280;5655;48.744;9.162;2022-09-09T11:15:54;95886.56;;;22.62;100.00
11198;BME280;5655;48.744;9.162;2022-09-09T11:18:23;95888.69;;;22.67;100.00
11198;BME280;5655;48.744;9.162;2022-09-09T11:20:55;95888.38;;;22.47;100.00
11198;BME280;5655;48.744;9.162;2022-09-09T11:23:40;95900.78;;;22.39;100.00
11198;BME280;5655;48.744;9.162;2022-09-09T11:26:12;95927.66;;;22.18;100.00
11198;BME280;5655;48.744;9.162;2022-09-09T11:29:09;95913.91;;;21.39;100.00
11198;BME280;5655;48.744;9.162;2022-09-09T11:37:53;95943.03;;;21.29;100.00
11198;BME280;5655;48.744;9.162;2022-09-09T11:40:25;95938.66;;;21.32;100.00
11198;BME280;5655;48.744;9.162;2022-09-09T11:43:13;95934.56;;;20.80;100.00
11198;BME280;5655;48.744;9.162;2022-09-09T11:45:41;95937.03;;;20.53;100.00
11198;BME280;5655;48.744;9.162;2022-09-09T11:48:32;95940.78;;;20.68;100.00
11198;BME280;5655;48.744;9.162;2022-09-09T11:51:11;95917.44;;;20.58;100.00
11198;BME280;5655;48.744;9.162;2022-09-09T11:53:55;95918.31;;;20.55;100.00
11198;BME280;5655;48.744;9.162;2022-09-09T11:59:06;95912.41;;;21.03;100.00
11198;BME280;5655;48.744;9.162;2022-09-09T12:01:42;95911.59;;;21.59;100.00
11198;BME280;5655;48.744;9.162;2022-09-09T12:06:43;95921.28;;;22.12;100.00
11198;BME280;5655;48.744;9.162;2022-09-09T12:09:47;95916.38;;;21.98;100.00
11198;BME280;5655;48.744;9.162;2022-09-09T12:17:23;95924.56;;;21.98;100.00
11198;BME280;5655;48.744;9.162;2022-09-09T12:20:11;95903.97;;;22.55;100.00
11198;BME280;5655;48.744;9.162;2022-09-09T12:34:16;95890.25;;;24.81;100.00
11198;BME280;5655;48.744;9.162;2022-09-09T12:36:46;95895.16;;;24.54;100.00
11198;BME280;5655;48.744;9.162;2022-09-09T12:39:18;95889.66;;;24.30;100.00
11198;BME280;5655;48.744;9.162;2022-09-09T12:41:52;95890.50;;;24.45;100.00
11198;BME280;5655;48.744;9.162;2022-09-09T12:44:24;95881.28;;;24.57;100.00
11198;BME280;5655;48.744;9.162;2022-09-09T12:46:51;95894.66;;;23.99;100.00
11198;BME280;5655;48.744;9.162;2022-09-09T12:49:34;95906.16;;;23.42;100.00
11198;BME280;5655;48.744;9.162;2022-09-09T12:52:28;95897.50;;;22.71;100.00
11198;BME280;5655;48.744;9.162;2022-09-09T12:54:52;95892.16;;;22.58;100.00
11198;BME280;5655;48.744;9.162;2022-09-09T12:57:19;95891.75;;;22.69;100.00
11198;BME280;5655;48.744;9.162;2022-09-09T12:59:45;95881.75;;;23.21;100.00
11198;BME280;5655;48.744;9.162;2022-09-09T13:02:25;95882.34;;;23.34;100.00
11198;BME280;5655;48.744;9.162;2022-09-09T13:04:52;95887.50;;;23.23;100.00
11198;BME280;5655;48.744;9.162;2022-09-09T13:07:20;95874.97;;;23.76;100.00
11198;BME280;5655;48.744;9.162;2022-09-09T13:09:47;95876.19;;;23.75;100.00
11198;BME280;5655;48.744;9.162;2022-09-09T13:12:22;95876.91;;;23.06;100.00
11198;BME280;5655;48.744;9.162;2022-09-09T13:14:50;95888.44;;;22.92;100.00
11198;BME280;5655;48.744;9.162;2022-09-09T13:17:23;95863.56;;;22.90;100.00
11198;BME280;5655;48.744;9.162;2022-09-09T13:19:50;95875.06;;;23.13;100.00
11198;BME280;5655;48.744;9.162;2022-09-09T13:22:34;95863.53;;;23.45;100.00
11198;BME280;5655;48.744;9.162;2022-09-09T13:25:04;95859.72;;;23.93;100.00
11198;BME280;5655;48.744;9.162;2022-09-09T13:27:39;95858.41;;;23.80;100.00
11198;BME280;5655;48.744;9.162;2022-09-09T13:30:20;95858.69;;;23.82;100.00
11198;BME280;5655;48.744;9.162;2022-09-09T13:32:47;95858.47;;;23.62;100.00
11198;BME280;5655;48.744;9.162;2022-09-09T13:35:23;95863.38;;;23.48;100.00
11198;BME280;5655;48.744;9.162;2022-09-09T13:37:49;95858.38;;;23.29;100.00
11198;BME280;5655;48.744;9.162;2022-09-09T13:40:18;95869.59;;;23.31;100.00
11198;BME280;5655;48.744;9.162;2022-09-09T13:42:44;95868.09;;;22.75;100.00
11198;BME280;5655;48.744;9.162;2022-09-09T13:45:21;95867.78;;;22.64;100.00
11198;BME280;5655;48.744;9.162;2022-09-09T13:47:48;95856.09;;;22.54;100.00
11198;BME280;5655;48.744;9.162;2022-09-09T13:52:49;95860.22;;;22.95;100.00
11198;BME280;5655;48.744;9.162;2022-09-09T13:55:17;95852.00;;;23.23;100.00
11198;BME280;5655;48.744;9.162;2022-09-09T13:58:00;95846.28;;;22.93;100.00
11198;BME280;5655;48.744;9.162;2022-09-09T14:00:27;95843.84;;;22.95;100.00
11198;BME280;5655;48.744;9.162;2022-09-09T14:02:53;95857.78;;;22.97;100.00
11198;BME280;5655;48.744;9.162;2022-09-09T14:05:20;95854.44;;;23.21;100.00
11198;BME280;5655;48.744;9.162;2022-09-09T14:07:47;95847.75;;;23.13;100.00
11198;BME280;5655;48.744;9.162;2022-09-09T14:10:13;95867.50;;;22.89;100.00
11198;BME280;5655;48.744;9.162;2022-09-09T14:12:38;95852.00;;;23.23;100.00
11198;BME280;5655;48.744;9.162;2022-09-09T14:15:05;95850.94;;;23.29;100.00
11198;BME280;5655;48.744;9.162;2022-09-09T14:17:31;95849.00;;;23.21;100.00
11198;BME280;5655;48.744;9.162;2022-09-09T14:19:57;95849.44;;;23.01;100.00
11198;BME280;5655;48.744;9.162;2022-09-09T14:22:23;95856.75;;;22.86;100.00
11198;BME280;5655;48.744;9.162;2022-09-09T14:24:49;95849.00;;;23.12;100.00
11198;BME280;5655;48.744;9.162;2022-09-09T14:27:14;95854.75;;;23.14;100.00
11198;BME280;5655;48.744;9.162;2022-09-09T14:29:40;95846.25;;;23.30;100.00
11198;BME280;5655;48.744;9.162;2022-09-09T14:32:06;95853.84;;;23.17;100.00
11198;BME280;5655;48.744;9.162;2022-09-09T14:34:31;95854.72;;;23.50;100.00
11198;BME280;5655;48.744;9.162;2022-09-09T14:37:00;95845.34;;;23.24;100.00
11198;BME280;5655;48.744;9.162;2022-09-09T14:39:26;95843.78;;;23.41;100.00
11198;BME280;5655;48.744;9.162;2022-09-09T14:41:51;95845.03;;;23.22;100.00
11198;BME280;5655;48.744;9.162;2022-09-09T14:44:17;95842.25;;;23.40;100.00
11198;BME280;5655;48.744;9.162;2022-09-09T14:46:42;95835.06;;;23.70;100.00
11198;BME280;5655;48.744;9.162;2022-09-09T14:49:08;95839.25;;;23.29;100.00
11198;BME280;5655;48.744;9.162;2022-09-09T14:51:33;95845.03;;;23.13;100.00
11198;BME280;5655;48.744;9.162;2022-09-09T14:53:59;95843.97;;;23.19;100.00
11198;BME280;5655;48.744;9.162;2022-09-09T14:56:26;95842.25;;;23.40;100.00
11198;BME280;5655;48.744;9.162;2022-09-09T14:58:54;95852.59;;;23.45;100.00
11198;BME280;5655;48.744;9.162;2022-09-09T15:01:20;95857.44;;;23.32;100.00
11198;BME280;5655;48.744;9.162;2022-09-09T15:03:54;95847.94;;;23.78;100.00
11198;BME280;5655;48.744;9.162;2022-09-09T15:06:21;95859.09;;;23.57;100.00
11198;BME280;5655;48.744;9.162;2022-09-09T15:08:47;95856.88;;;23.10;100.00
11198;BME280;5655;48.744;9.162;2022-09-09T15:11:15;95855.03;;;23.34;100.00
11198;BME280;5655;48.744;9.162;2022-09-09T15:13:42;95862.00;;;23.26;100.00
11198;BME280;5655;48.744;9.162;2022-09-09T15:16:16;95855.31;;;23.36;100.00
11198;BME280;5655;48.744;9.162;2022-09-09T15:18:42;95862.19;;;23.04;100.00
11198;BME280;5655;48.744;9.162;2022-09-09T15:21:12;95852.78;;;22.87;100.00
11198;BME280;5655;48.744;9.162;2022-09-09T15:23:38;95857.19;;;22.75;100.00